Nanticoke, Maryland
Current Conditions -  °F | °C
As of 4:08 AM on Wednesday 26 Nov 2014 (Local Time) from KCGE Reporting Station
Broken Clouds Broken Clouds  
Wind Chill: 43°   Ceiling: 1300
Heat Index: 46°   Visibility: 10mi
Dew Point: 41°   Wind: 7mph
Humidity: 81%   Direction: 80°E
Pressure: 30.07"   Gusts: NA
Location:  38.27°N, 75.91°W
Report Text: KCGE 260908Z AUTO 08006KT 10SM SCT008 BKN013 08/05 A3007 RMK AO1
Loading
Personal Weather Stations






























Interactive Weather Map New forecast layout! Learn more

10-Day Weather Forecast

Advertisements
Track Severe Weather on mobile